createdAt,value
2018-07-02T00:01:36.302Z,101586.64
2018-07-02T00:04:38.635Z,101584.77
2018-07-02T00:07:40.735Z,101581.19
2018-07-02T00:10:42.849Z,101579.35
2018-07-02T00:13:45.005Z,101572.19
2018-07-02T00:16:47.153Z,101569.00
2018-07-02T00:19:49.190Z,101572.79
2018-07-02T00:22:51.355Z,101570.18
2018-07-02T00:25:53.485Z,101571.05
2018-07-02T00:28:56.267Z,101567.19
2018-07-02T00:31:58.382Z,101567.15
2018-07-02T00:35:00.728Z,101564.10
2018-07-02T00:38:02.827Z,101568.18
2018-07-02T00:41:04.943Z,101570.51
2018-07-02T00:44:07.109Z,101563.59
2018-07-02T00:47:09.441Z,101566.05
2018-07-02T00:50:11.632Z,101573.32
2018-07-02T00:53:13.743Z,101567.90
2018-07-02T00:56:15.903Z,101573.36
2018-07-02T00:59:18.074Z,101574.90
2018-07-02T01:02:20.331Z,101575.10
2018-07-02T01:05:23.429Z,101570.71
2018-07-02T01:08:27.110Z,101574.45
2018-07-02T01:11:30.664Z,101590.00
2018-07-02T01:14:36.010Z,101592.60
2018-07-02T01:17:38.289Z,101595.12
2018-07-02T01:20:40.316Z,101590.38
2018-07-02T01:23:42.753Z,101588.68
2018-07-02T01:26:44.962Z,101592.51
2018-07-02T01:29:47.463Z,101591.19
2018-07-02T01:32:49.420Z,101591.08
2018-07-02T01:35:51.518Z,101603.62
2018-07-02T01:38:53.682Z,101603.96
2018-07-02T01:41:56.314Z,101603.10
2018-07-02T01:44:58.295Z,101602.99
2018-07-02T01:48:00.399Z,101611.65
2018-07-02T01:51:02.466Z,101606.24
2018-07-02T01:54:04.538Z,101602.27
2018-07-02T01:57:06.591Z,101606.52
2018-07-02T02:00:08.651Z,101604.74
2018-07-02T02:03:10.764Z,101605.50
2018-07-02T02:06:12.712Z,101608.14
2018-07-02T02:09:16.786Z,101606.04
2018-07-02T02:12:18.894Z,101599.58
2018-07-02T02:15:20.940Z,101602.46
2018-07-02T02:18:23.031Z,101600.43
2018-07-02T02:21:25.095Z,101589.79
2018-07-02T02:24:27.826Z,101592.54
2018-07-02T02:27:29.950Z,101598.72
2018-07-02T02:30:32.016Z,101592.13
2018-07-02T02:33:34.258Z,101589.00
2018-07-02T02:36:36.379Z,101592.99
2018-07-02T02:39:38.436Z,101594.95
2018-07-02T02:42:40.388Z,101593.14
2018-07-02T02:45:42.451Z,101598.00
2018-07-02T02:48:44.520Z,101599.25
2018-07-02T02:51:46.600Z,101598.00
2018-07-02T02:54:48.643Z,101595.10
2018-07-02T02:57:50.741Z,101593.03
2018-07-02T03:00:52.811Z,101592.05
2018-07-02T03:03:54.900Z,101591.72
2018-07-02T03:06:57.946Z,101593.07
2018-07-02T03:10:00.061Z,101587.31
2018-07-02T03:13:02.179Z,101591.75
2018-07-02T03:16:04.672Z,101602.56
2018-07-02T03:19:06.901Z,101605.24
2018-07-02T03:22:09.002Z,101604.20
2018-07-02T03:25:12.123Z,101599.80
2018-07-02T03:28:15.228Z,101605.03
2018-07-02T03:31:17.391Z,101602.83
2018-07-02T03:34:19.473Z,101602.66
2018-07-02T03:37:21.423Z,101604.01
2018-07-02T03:40:23.493Z,101609.26
2018-07-02T03:43:25.538Z,101608.49
2018-07-02T03:46:28.853Z,101605.54
2018-07-02T03:49:31.923Z,101611.09
2018-07-02T03:52:34.007Z,101611.96
2018-07-02T03:55:36.091Z,101604.36
2018-07-02T03:58:38.153Z,101599.62
2018-07-02T04:01:40.325Z,101607.13
2018-07-02T04:04:42.432Z,101608.07
2018-07-02T04:07:44.499Z,101614.67
2018-07-02T04:10:46.663Z,101622.10
2018-07-02T04:13:48.709Z,101622.58
2018-07-02T04:16:50.673Z,101624.27
2018-07-02T04:19:52.736Z,101613.41
2018-07-02T04:22:54.800Z,101612.08
2018-07-02T04:25:58.142Z,101623.19
2018-07-02T04:29:00.178Z,101625.72
2018-07-02T04:32:02.241Z,101626.04
2018-07-02T04:35:04.534Z,101623.12
2018-07-02T04:38:08.756Z,101622.23
2018-07-02T04:41:10.858Z,101621.81
2018-07-02T04:44:12.893Z,101622.44
2018-07-02T04:47:15.995Z,101625.45
2018-07-02T04:50:18.054Z,101624.50
2018-07-02T04:53:20.120Z,101628.75
2018-07-02T04:56:22.210Z,101627.83
2018-07-02T04:59:24.268Z,101631.36
2018-07-02T05:02:27.411Z,101634.58
2018-07-02T05:05:29.499Z,101631.02
2018-07-02T05:08:31.591Z,101631.68
2018-07-02T05:11:34.884Z,101631.79
2018-07-02T05:14:37.331Z,101628.06
2018-07-02T05:17:39.352Z,101631.77
2018-07-02T05:20:41.513Z,101627.43
2018-07-02T05:23:44.597Z,101631.81
2018-07-02T05:26:46.600Z,101642.48
2018-07-02T05:29:55.199Z,101648.22
2018-07-02T05:32:58.733Z,101635.06
2018-07-02T05:36:00.731Z,101628.43
2018-07-02T05:39:04.710Z,101628.10
2018-07-02T05:42:06.859Z,101632.22
2018-07-02T05:45:08.924Z,101638.99
2018-07-02T05:48:11.193Z,101639.88
2018-07-02T05:51:13.263Z,101647.96
2018-07-02T05:54:15.332Z,101648.30
2018-07-02T05:57:17.691Z,101646.03
2018-07-02T06:00:19.701Z,101644.41
2018-07-02T06:03:21.747Z,101644.13
2018-07-02T06:06:23.871Z,101638.88
2018-07-02T06:09:26.085Z,101648.70
2018-07-02T06:12:29.418Z,101644.48
2018-07-02T06:15:31.361Z,101654.58
2018-07-02T06:18:33.448Z,101656.39
2018-07-02T06:21:36.503Z,101660.55
2018-07-02T06:24:38.712Z,101654.58
2018-07-02T06:27:40.735Z,101663.37
2018-07-02T06:30:42.886Z,101655.59
2018-07-02T06:33:45.112Z,101661.05
2018-07-02T06:36:47.207Z,101659.01
2018-07-02T06:39:49.249Z,101664.87
2018-07-02T06:42:52.495Z,101669.67
2018-07-02T06:45:54.694Z,101674.04
2018-07-02T06:48:56.856Z,101669.94
2018-07-02T06:52:00.379Z,101667.77
2018-07-02T06:55:02.482Z,101673.72
2018-07-02T06:58:04.571Z,101675.41
2018-07-02T07:01:06.704Z,101674.77
2018-07-02T07:04:08.796Z,101668.99
2018-07-02T07:07:10.825Z,101668.58
2018-07-02T07:10:13.900Z,101671.74
2018-07-02T07:13:16.089Z,101672.04
2018-07-02T07:16:18.160Z,101678.70
2018-07-02T07:19:20.432Z,101678.15
2018-07-02T07:22:22.471Z,101683.74
2018-07-02T07:25:24.571Z,101681.50
2018-07-02T07:28:26.806Z,101683.18
2018-07-02T07:31:28.986Z,101681.21
2018-07-02T07:34:31.164Z,101673.05
2018-07-02T07:37:33.285Z,101670.40
2018-07-02T07:40:36.359Z,101663.81
2018-07-02T07:43:38.490Z,101665.59
2018-07-02T07:46:40.543Z,101663.58
2018-07-02T07:49:42.744Z,101659.51
2018-07-02T07:52:44.735Z,101660.05
2018-07-02T07:55:46.909Z,101659.03
2018-07-02T07:58:48.973Z,101659.72
2018-07-02T08:01:51.073Z,101657.68
2018-07-02T08:04:53.225Z,101656.64
2018-07-02T08:07:55.337Z,101656.26
2018-07-02T08:10:57.355Z,101649.08
2018-07-02T08:14:00.661Z,101644.94
2018-07-02T08:17:03.129Z,101641.32
2018-07-02T08:20:05.515Z,101639.27
2018-07-02T08:23:07.627Z,101643.47
2018-07-02T08:26:09.766Z,101640.57
2018-07-02T08:29:11.834Z,101630.80
2018-07-02T08:32:13.784Z,101631.52
2018-07-02T08:35:15.864Z,101632.49
2018-07-02T08:38:17.931Z,101639.00
2018-07-02T08:41:20.144Z,101637.95
2018-07-02T08:44:22.192Z,101642.28
2018-07-02T08:47:24.244Z,101632.61
2018-07-02T08:50:26.397Z,101629.96
2018-07-02T08:53:29.084Z,101622.56
2018-07-02T08:56:31.248Z,101622.79
2018-07-02T08:59:33.336Z,101618.42
2018-07-02T09:02:35.277Z,101608.39
2018-07-02T09:05:37.661Z,101615.22
2018-07-02T09:08:39.755Z,101618.04
2018-07-02T09:11:42.986Z,101599.57
2018-07-02T09:14:45.173Z,101593.15
2018-07-02T09:17:47.153Z,101588.34
2018-07-02T09:20:49.243Z,101598.53
2018-07-02T09:23:51.397Z,101598.98
2018-07-02T09:26:53.463Z,101597.29
2018-07-02T09:29:55.559Z,101592.88
2018-07-02T09:32:57.571Z,101595.83
2018-07-02T09:36:01.013Z,101601.19
2018-07-02T09:39:05.691Z,101597.66
2018-07-02T09:42:07.829Z,101602.62
2018-07-02T09:45:11.183Z,101594.61
2018-07-02T09:48:13.228Z,101599.47
2018-07-02T09:51:15.264Z,101613.05
2018-07-02T09:54:17.436Z,101605.15
2018-07-02T09:57:19.501Z,101609.64
2018-07-02T10:00:21.589Z,101602.33
2018-07-02T10:03:23.725Z,101605.77
2018-07-02T10:06:25.741Z,101605.40
2018-07-02T10:09:27.880Z,101607.75
2018-07-02T10:12:30.463Z,101605.35
2018-07-02T10:15:32.659Z,101601.39
2018-07-02T10:18:34.699Z,101601.05
2018-07-02T10:21:36.900Z,101598.40
2018-07-02T10:24:39.047Z,101592.18
2018-07-02T10:27:41.240Z,101600.69
2018-07-02T10:30:43.263Z,101599.33
2018-07-02T10:33:45.396Z,101591.62
2018-07-02T10:36:47.406Z,101595.27
2018-07-02T10:39:49.537Z,101593.59
2018-07-02T10:42:51.560Z,101591.70
2018-07-02T10:45:53.699Z,101597.78
2018-07-02T10:48:55.852Z,101589.90
2018-07-02T10:51:57.899Z,101585.56
2018-07-02T10:55:00.631Z,101582.17
2018-07-02T10:58:02.971Z,101581.45
2018-07-02T11:01:05.213Z,101586.62
2018-07-02T11:04:07.423Z,101593.25
2018-07-02T11:07:09.425Z,101587.36
2018-07-02T11:10:11.508Z,101577.55
2018-07-02T11:13:13.451Z,101579.73
2018-07-02T11:16:15.547Z,101581.47
2018-07-02T11:19:17.720Z,101569.77
2018-07-02T11:22:19.692Z,101567.61
2018-07-02T11:25:21.827Z,101566.58
2018-07-02T11:28:23.903Z,101570.19
2018-07-02T11:31:26.076Z,101564.82
2018-07-02T11:34:28.145Z,101553.80
2018-07-02T11:37:30.395Z,101563.29
2018-07-02T11:40:32.651Z,101562.81
2018-07-02T11:43:34.678Z,101561.40
2018-07-02T11:46:36.988Z,101554.97
2018-07-02T11:49:39.197Z,101560.93
2018-07-02T11:52:41.202Z,101559.57
2018-07-02T11:55:43.249Z,101552.68
2018-07-02T11:58:45.351Z,101558.61
2018-07-02T12:01:47.403Z,101551.90
2018-07-02T12:04:49.478Z,101553.01
2018-07-02T12:07:51.657Z,101543.91
2018-07-02T12:10:53.696Z,101542.78
2018-07-02T12:13:55.694Z,101549.83
2018-07-02T12:16:59.531Z,101544.17
2018-07-02T12:20:01.832Z,101536.49
2018-07-02T12:23:04.864Z,101544.95
2018-07-02T12:26:06.956Z,101535.92
2018-07-02T12:29:09.086Z,101537.55
2018-07-02T12:32:11.243Z,101538.37
2018-07-02T12:35:13.660Z,101532.59
2018-07-02T12:38:15.774Z,101525.14
2018-07-02T12:41:18.446Z,101529.33
2018-07-02T12:44:20.382Z,101530.06
2018-07-02T12:47:22.756Z,101529.33
2018-07-02T12:50:24.975Z,101520.71
2018-07-02T12:53:27.114Z,101526.73
2018-07-02T12:56:29.164Z,101523.30
2018-07-02T12:59:31.937Z,101512.86
2018-07-02T13:02:34.038Z,101512.71
2018-07-02T13:05:36.256Z,101501.90
2018-07-02T13:08:38.352Z,101505.75
2018-07-02T13:11:40.556Z,101502.89
2018-07-02T13:14:42.595Z,101489.12
2018-07-02T13:17:44.772Z,101485.96
2018-07-02T13:20:46.819Z,101482.41
2018-07-02T13:23:48.932Z,101488.05
2018-07-02T13:26:51.312Z,101481.82
2018-07-02T13:29:53.341Z,101479.78
2018-07-02T13:32:55.397Z,101476.64
2018-07-02T13:35:57.379Z,101475.48
2018-07-02T13:38:59.456Z,101466.56
2018-07-02T13:42:02.237Z,101478.36
2018-07-02T13:45:04.562Z,101473.93
2018-07-02T13:48:06.718Z,101477.72
2018-07-02T13:51:08.744Z,101468.44
2018-07-02T13:54:10.819Z,101462.36
2018-07-02T13:57:12.917Z,101460.94
2018-07-02T14:00:14.986Z,101457.19
2018-07-02T14:03:17.148Z,101449.74
2018-07-02T14:06:19.447Z,101455.77
2018-07-02T14:09:21.558Z,101454.28
2018-07-02T14:12:23.642Z,101452.72
2018-07-02T14:15:26.739Z,101450.41
2018-07-02T14:18:32.294Z,101457.77
2018-07-02T14:21:35.543Z,101449.41
2018-07-02T14:24:37.659Z,101451.31
2018-07-02T14:27:39.735Z,101448.37
2018-07-02T14:30:42.875Z,101442.00
2018-07-02T14:33:44.887Z,101444.26
2018-07-02T14:36:46.953Z,101447.12
2018-07-02T14:39:49.028Z,101446.92
2018-07-02T14:42:51.045Z,101443.67
2018-07-02T14:45:53.192Z,101446.63
2018-07-02T14:48:55.171Z,101444.90
2018-07-02T14:51:57.186Z,101443.42
2018-07-02T14:54:59.268Z,101445.92
2018-07-02T14:58:02.407Z,101436.67
2018-07-02T15:01:04.371Z,101435.53
2018-07-02T15:04:06.481Z,101433.73
2018-07-02T15:07:08.832Z,101432.07
2018-07-02T15:10:10.980Z,101438.02
2018-07-02T15:13:13.120Z,101437.27
2018-07-02T15:16:15.183Z,101439.34
2018-07-02T15:19:17.347Z,101438.33
2018-07-02T15:22:20.535Z,101437.81
2018-07-02T15:25:23.701Z,101435.31
2018-07-02T15:28:25.711Z,101425.56
2018-07-02T15:31:27.692Z,101434.66
2018-07-02T15:34:29.773Z,101430.41
2018-07-02T15:37:32.228Z,101434.88
2018-07-02T15:40:34.420Z,101434.45
2018-07-02T15:43:36.879Z,101440.30
2018-07-02T15:46:39.132Z,101437.15
2018-07-02T15:49:41.343Z,101431.55
2018-07-02T15:52:43.352Z,101427.91
2018-07-02T15:55:45.362Z,101426.03
2018-07-02T15:58:47.503Z,101429.63
2018-07-02T16:01:49.708Z,101435.06
2018-07-02T16:04:51.888Z,101428.55
2018-07-02T16:07:54.156Z,101430.71
2018-07-02T16:10:56.093Z,101427.09
2018-07-02T16:13:58.176Z,101423.14
2018-07-02T16:17:01.406Z,101419.00
2018-07-02T16:20:03.436Z,101414.70
2018-07-02T16:23:05.846Z,101415.49
2018-07-02T16:26:07.831Z,101418.55
2018-07-02T16:29:09.858Z,101418.18
2018-07-02T16:32:12.041Z,101418.49
2018-07-02T16:35:14.107Z,101414.57
2018-07-02T16:38:16.223Z,101415.69
2018-07-02T16:41:18.328Z,101414.03
2018-07-02T16:44:20.469Z,101417.17
2018-07-02T16:47:22.468Z,101416.98
2018-07-02T16:50:24.634Z,101410.82
2018-07-02T16:53:26.732Z,101418.87
2018-07-02T16:56:28.791Z,101421.63
2018-07-02T16:59:31.876Z,101416.34
2018-07-02T17:02:33.935Z,101417.03
2018-07-02T17:05:36.820Z,101409.92
2018-07-02T17:08:38.999Z,101418.90
2018-07-02T17:11:41.088Z,101421.79
2018-07-02T17:14:43.061Z,101422.44
2018-07-02T17:17:46.159Z,101422.91
2018-07-02T17:20:50.256Z,101426.30
2018-07-02T17:23:52.223Z,101424.58
2018-07-02T17:26:54.297Z,101425.00
2018-07-02T17:29:56.460Z,101428.40
2018-07-02T17:32:58.495Z,101417.83
2018-07-02T17:36:01.852Z,101413.31
2018-07-02T17:39:06.855Z,101418.56
2018-07-02T17:42:08.845Z,101425.89
2018-07-02T17:45:12.971Z,101425.13
2018-07-02T17:48:15.135Z,101425.61
2018-07-02T17:51:17.208Z,101427.39
2018-07-02T17:54:19.357Z,101424.01
2018-07-02T17:57:21.451Z,101429.03
2018-07-02T18:00:23.551Z,101427.17
2018-07-02T18:03:25.671Z,101427.86
2018-07-02T18:06:27.859Z,101433.24
2018-07-02T18:09:29.940Z,101434.60
2018-07-02T18:12:34.084Z,101431.37
2018-07-02T18:15:36.235Z,101424.04
2018-07-02T18:18:38.297Z,101426.27
2018-07-02T18:21:40.463Z,101430.13
2018-07-02T18:24:42.528Z,101430.30
2018-07-02T18:27:44.634Z,101436.54
2018-07-02T18:30:46.876Z,101437.68
2018-07-02T18:33:49.028Z,101439.08
2018-07-02T18:36:51.236Z,101439.97
2018-07-02T18:39:53.380Z,101444.15
2018-07-02T18:42:55.753Z,101451.76
2018-07-02T18:45:57.817Z,101451.79
2018-07-02T18:49:03.450Z,101452.38
2018-07-02T18:52:05.664Z,101452.75
2018-07-02T18:55:07.888Z,101456.53
2018-07-02T18:58:09.963Z,101457.30
2018-07-02T19:01:11.947Z,101460.48
2018-07-02T19:04:14.106Z,101466.14
2018-07-02T19:07:16.183Z,101466.70
2018-07-02T19:10:18.224Z,101473.22
2018-07-02T19:13:20.467Z,101474.51
2018-07-02T19:16:22.660Z,101476.37
2018-07-02T19:19:24.696Z,101472.28
2018-07-02T19:22:26.647Z,101471.02
2018-07-02T19:25:28.751Z,101472.46
2018-07-02T19:28:31.552Z,101468.50
2018-07-02T19:31:33.563Z,101476.26
2018-07-02T19:34:35.659Z,101489.09
2018-07-02T19:37:37.917Z,101487.50
2018-07-02T19:40:39.995Z,101495.22
2018-07-02T19:43:42.083Z,101498.14
2018-07-02T19:46:44.231Z,101497.28
2018-07-02T19:49:46.942Z,101498.64
2018-07-02T19:52:49.133Z,101509.24
2018-07-02T19:55:51.248Z,101517.08
2018-07-02T19:58:53.505Z,101524.25
2018-07-02T20:01:55.631Z,101525.44
2018-07-02T20:04:57.776Z,101523.68
2018-07-02T20:07:59.837Z,101528.84
2018-07-02T20:11:02.018Z,101542.37
2018-07-02T20:14:04.078Z,101538.62
2018-07-02T20:17:06.091Z,101539.83
2018-07-02T20:20:09.463Z,101538.72
2018-07-02T20:23:11.589Z,101547.17
2018-07-02T20:26:13.776Z,101540.22
2018-07-02T20:29:16.854Z,101547.78
2018-07-02T20:32:19.311Z,101547.17
2018-07-02T20:35:21.518Z,101552.04
2018-07-02T20:38:23.721Z,101555.28
2018-07-02T20:41:25.749Z,101562.29
2018-07-02T20:44:27.840Z,101571.02
2018-07-02T20:47:30.172Z,101573.46
2018-07-02T20:50:32.296Z,101576.50
2018-07-02T20:53:34.317Z,101582.92
2018-07-02T20:56:36.412Z,101583.28
2018-07-02T20:59:39.651Z,101588.24
2018-07-02T21:02:41.677Z,101593.47
2018-07-02T21:05:43.832Z,101595.65
2018-07-02T21:08:46.856Z,101595.76
2018-07-02T21:11:48.891Z,101599.95
2018-07-02T21:14:50.979Z,101598.63
2018-07-02T21:17:53.128Z,101601.22
2018-07-02T21:20:55.233Z,101601.19
2018-07-02T21:23:57.370Z,101601.41
2018-07-02T21:26:59.346Z,101596.47
2018-07-02T21:30:01.488Z,101603.19
2018-07-02T21:33:03.612Z,101608.45
2018-07-02T21:36:05.768Z,101605.51
2018-07-02T21:39:09.931Z,101607.54
2018-07-02T21:42:12.076Z,101607.78
2018-07-02T21:45:15.115Z,101608.99
2018-07-02T21:48:18.519Z,101610.67
2018-07-02T21:51:20.607Z,101613.21
2018-07-02T21:54:22.684Z,101607.97
2018-07-02T21:57:24.741Z,101604.56
2018-07-02T22:00:26.852Z,101608.01
2018-07-02T22:03:29.087Z,101605.48
2018-07-02T22:06:31.188Z,101605.36
2018-07-02T22:09:33.380Z,101603.63
2018-07-02T22:12:35.572Z,101600.48
2018-07-02T22:15:37.670Z,101603.81
2018-07-02T22:18:39.664Z,101604.66
2018-07-02T22:21:41.814Z,101606.18
2018-07-02T22:24:43.871Z,101607.70
2018-07-02T22:27:45.955Z,101608.85
2018-07-02T22:30:49.129Z,101610.71
2018-07-02T22:33:51.094Z,101610.84
2018-07-02T22:36:53.191Z,101616.27
2018-07-02T22:39:55.226Z,101620.05
2018-07-02T22:42:58.336Z,101617.51
2018-07-02T22:46:00.444Z,101621.35
2018-07-02T22:49:06.996Z,101623.67
2018-07-02T22:52:09.151Z,101624.83
2018-07-02T22:55:11.417Z,101625.82
2018-07-02T22:58:13.566Z,101626.84
2018-07-02T23:01:15.811Z,101625.10
2018-07-02T23:04:19.124Z,101630.45
2018-07-02T23:07:21.316Z,101630.72
2018-07-02T23:10:23.315Z,101628.00
2018-07-02T23:13:25.634Z,101635.83
2018-07-02T23:16:27.751Z,101631.98
2018-07-02T23:19:29.822Z,101627.86
2018-07-02T23:22:41.767Z,101628.77
2018-07-02T23:25:43.902Z,101634.25
2018-07-02T23:28:45.961Z,101632.17
2018-07-02T23:31:49.172Z,101636.32
2018-07-02T23:34:51.137Z,101635.80
2018-07-02T23:37:53.320Z,101629.76
2018-07-02T23:40:55.648Z,101627.34
2018-07-02T23:43:57.716Z,101631.34
2018-07-02T23:46:59.813Z,101626.21
2018-07-02T23:50:01.938Z,101622.80
2018-07-02T23:53:04.056Z,101631.56
2018-07-02T23:56:06.306Z,101629.26
2018-07-02T23:59:08.418Z,101629.87
